Time;durP1;ratioP1;P1;durP2;ratioP2;P2;SDS_P1;SDS_P2;PMS_P1;PMS_P2;Temp;Humidity;BMP_temperature;BMP_pressure;BME280_temperature;BME280_humidity;BME280_pressure;Samples;Min_cycle;Max_cycle;Signal;HPM_P1;HPM_P2
2022/03/20 00:00:43;;;;;;;10.50;4.88;;;8.20;99.90;;;;;;4958169;28;20043;-67
2022/03/20 00:03:11;;;;;;;12.77;4.68;;;8.10;99.90;;;;;;4954665;29;20043;-67
2022/03/20 00:05:39;;;;;;;6.22;4.18;;;8.10;99.90;;;;;;4953889;28;20435;-67
2022/03/20 00:08:09;;;;;;;9.85;5.10;;;8.20;99.90;;;;;;4972842;28;20498;-67
2022/03/20 00:10:49;;;;;;;10.85;5.03;;;8.30;99.90;;;;;;4972904;28;20051;-67
2022/03/20 00:13:17;;;;;;;10.25;4.78;;;8.30;99.90;;;;;;4960472;28;20055;-67
2022/03/20 00:15:45;;;;;;;9.35;4.40;;;8.20;99.90;;;;;;4962451;28;20047;-67
2022/03/20 00:18:12;;;;;;;4.65;3.55;;;8.10;99.90;;;;;;4959819;28;20478;-67
2022/03/20 00:20:40;;;;;;;7.93;4.07;;;8.10;99.90;;;;;;4992524;28;20089;-67
2022/03/20 00:23:12;;;;;;;5.95;4.35;;;8.30;99.90;;;;;;4969037;28;20106;-67
2022/03/20 00:25:39;;;;;;;7.35;4.57;;;8.30;99.90;;;;;;4957326;28;20043;-67
2022/03/20 00:28:05;;;;;;;9.48;4.38;;;8.10;99.90;;;;;;4972423;28;20062;-67
2022/03/20 00:30:32;;;;;;;8.60;4.43;;;8.10;99.90;;;;;;4961565;28;20070;-67
2022/03/20 00:32:58;;;;;;;7.72;4.57;;;8.30;99.90;;;;;;4973931;28;20043;-67
2022/03/20 00:35:23;;;;;;;9.27;4.82;;;8.10;99.90;;;;;;4971817;28;20120;-67
2022/03/20 00:37:49;;;;;;;7.28;4.63;;;8.10;99.90;;;;;;4960443;28;20090;-67
2022/03/20 00:40:15;;;;;;;5.53;4.28;;;8.10;99.90;;;;;;4959234;28;20055;-67
2022/03/20 00:42:41;;;;;;;7.45;4.07;;;8.00;99.90;;;;;;4954412;28;20098;-67
2022/03/20 00:45:07;;;;;;;8.63;4.20;;;8.10;99.90;;;;;;4964490;28;20042;-67
2022/03/20 00:47:33;;;;;;;7.78;4.20;;;8.00;99.90;;;;;;4973043;28;20050;-67
2022/03/20 00:49:58;;;;;;;9.32;4.47;;;8.00;99.90;;;;;;4955710;28;20065;-67
2022/03/20 00:52:24;;;;;;;7.32;4.00;;;7.80;99.90;;;;;;4954570;28;20101;-67
2022/03/20 00:54:50;;;;;;;9.15;4.90;;;7.90;99.90;;;;;;4963050;28;20035;-67
2022/03/20 00:57:16;;;;;;;10.32;4.88;;;7.70;99.90;;;;;;4956888;28;20107;-67
2022/03/20 00:59:41;;;;;;;7.55;4.93;;;7.70;99.90;;;;;;4984232;28;20081;-67
2022/03/20 01:02:11;;;;;;;6.40;3.92;;;7.70;99.90;;;;;;4961304;28;20083;-67
2022/03/20 01:04:37;;;;;;;7.65;4.68;;;7.80;99.90;;;;;;4952709;28;20491;-67
2022/03/20 01:07:04;;;;;;;7.32;3.85;;;7.60;99.90;;;;;;4953206;28;20039;-67
2022/03/20 01:09:30;;;;;;;10.88;4.00;;;7.70;99.90;;;;;;4953517;28;20134;-67
2022/03/20 01:11:57;;;;;;;9.57;5.40;;;7.60;99.90;;;;;;4970224;28;20495;-67
2022/03/20 01:14:24;;;;;;;12.27;5.55;;;7.60;99.90;;;;;;4965255;28;20501;-67
2022/03/20 01:16:51;;;;;;;10.30;4.80;;;7.50;99.90;;;;;;4954038;28;20055;-67
2022/03/20 01:19:16;;;;;;;9.05;5.53;;;7.40;99.90;;;;;;4952610;28;20433;-67
2022/03/20 01:21:42;;;;;;;9.40;4.15;;;7.50;99.90;;;;;;4970895;28;20047;-67
2022/03/20 01:24:09;;;;;;;6.63;4.72;;;7.30;99.90;;;;;;4953884;28;20046;-67
2022/03/20 01:26:36;;;;;;;9.68;6.07;;;7.30;99.90;;;;;;4963513;28;20043;-67
2022/03/20 01:29:07;;;;;;;7.85;4.80;;;7.20;99.90;;;;;;4972639;28;20043;-66
2022/03/20 01:31:33;;;;;;;6.82;5.05;;;7.30;99.90;;;;;;4972276;28;20043;-66
2022/03/20 01:33:59;;;;;;;9.27;5.05;;;7.20;99.90;;;;;;4971341;28;20133;-66
2022/03/20 01:36:25;;;;;;;8.13;4.43;;;7.20;99.90;;;;;;4954278;28;20134;-66
2022/03/20 01:38:51;;;;;;;9.95;5.32;;;7.30;99.90;;;;;;4953462;29;20128;-66
2022/03/20 01:41:17;;;;;;;8.13;4.38;;;7.40;99.90;;;;;;4964371;28;20069;-66
2022/03/20 01:43:55;;;;;;;8.55;4.93;;;7.40;99.90;;;;;;4963876;28;20066;-66
2022/03/20 01:46:21;;;;;;;13.88;5.35;;;7.30;99.90;;;;;;4978403;28;20046;-66
2022/03/20 01:48:49;;;;;;;10.07;5.75;;;7.20;99.90;;;;;;4960386;28;20403;-66
2022/03/20 01:51:15;;;;;;;10.02;4.85;;;7.10;99.90;;;;;;4952530;28;20051;-66
2022/03/20 01:53:42;;;;;;;12.55;5.65;;;7.20;99.90;;;;;;4952887;28;20494;-66
2022/03/20 01:56:07;;;;;;;8.40;5.22;;;7.00;99.90;;;;;;4974001;28;20171;-66
2022/03/20 01:58:34;;;;;;;8.15;4.75;;;7.00;99.90;;;;;;4949888;28;20716;-66
2022/03/20 02:01:00;;;;;;;10.10;4.93;;;6.90;99.90;;;;;;4950592;28;20571;-66
2022/03/20 02:03:26;;;;;;;7.68;5.57;;;6.80;99.90;;;;;;4983697;28;20046;-66
2022/03/20 02:05:53;;;;;;;10.32;5.85;;;7.00;99.90;;;;;;5020500;28;20065;-66
2022/03/20 02:08:25;;;;;;;7.57;5.97;;;6.70;99.90;;;;;;4952968;28;20062;-66
2022/03/20 02:10:54;;;;;;;10.93;5.47;;;6.90;99.90;;;;;;4951771;29;20078;-67
2022/03/20 02:13:24;;;;;;;12.55;5.93;;;7.00;99.90;;;;;;4948725;28;20087;-66
2022/03/20 02:15:51;;;;;;;12.00;6.45;;;6.80;99.90;;;;;;4955338;28;20051;-66
2022/03/20 02:18:18;;;;;;;10.57;5.80;;;6.90;99.90;;;;;;4961810;28;20043;-66
2022/03/20 02:20:47;;;;;;;10.02;5.53;;;6.80;99.90;;;;;;4986360;28;20057;-66
2022/03/20 02:23:13;;;;;;;7.55;4.88;;;6.80;99.90;;;;;;4980183;28;20495;-66
2022/03/20 02:25:50;;;;;;;8.65;4.57;;;6.80;99.90;;;;;;4967228;28;20038;-66
2022/03/20 02:28:16;;;;;;;12.93;5.93;;;6.90;99.90;;;;;;4989277;28;20050;-66
2022/03/20 02:30:42;;;;;;;9.38;5.72;;;6.90;99.90;;;;;;4988071;28;20479;-66
2022/03/20 02:33:08;;;;;;;11.35;6.20;;;6.80;99.90;;;;;;4960440;28;20074;-66
2022/03/20 02:35:35;;;;;;;11.38;5.85;;;6.90;99.90;;;;;;4955945;28;20426;-66
2022/03/20 02:38:01;;;;;;;8.73;5.53;;;6.80;99.90;;;;;;4969183;28;20486;-66
2022/03/20 02:40:26;;;;;;;9.38;5.43;;;6.90;99.90;;;;;;4980354;28;20041;-66
2022/03/20 02:42:54;;;;;;;9.85;5.78;;;6.90;99.90;;;;;;4959739;28;20647;-66
2022/03/20 02:45:29;;;;;;;9.40;5.68;;;6.80;99.90;;;;;;4962195;28;20517;-66
2022/03/20 02:47:55;;;;;;;9.38;6.25;;;6.70;99.90;;;;;;4969961;28;20407;-66
2022/03/20 02:50:30;;;;;;;11.18;5.47;;;6.70;99.90;;;;;;4960866;28;20041;-66
2022/03/20 02:53:13;;;;;;;12.10;7.60;;;6.70;99.90;;;;;;4957327;28;20118;-66
2022/03/20 02:55:41;;;;;;;10.90;6.10;;;6.80;99.90;;;;;;4969516;28;20054;-66
2022/03/20 02:58:10;;;;;;;13.65;6.55;;;6.80;99.90;;;;;;4949682;28;20309;-66
2022/03/20 03:00:37;;;;;;;10.10;7.25;;;6.90;99.90;;;;;;4958031;28;20125;-66
2022/03/20 03:03:04;;;;;;;9.88;6.35;;;6.70;99.90;;;;;;4969886;28;20102;-66
2022/03/20 03:05:31;;;;;;;13.27;6.72;;;6.70;99.90;;;;;;4962377;28;20133;-66
2022/03/20 03:10:56;;;;;;;8.27;5.88;;;6.70;99.90;;;;;;4970698;28;20106;-66
2022/03/20 03:13:41;;;;;;;11.38;7.20;;;6.70;99.90;;;;;;4968347;28;20058;-66
2022/03/20 03:16:10;;;;;;;16.05;9.25;;;6.70;99.90;;;;;;4965484;28;20044;-66
2022/03/20 03:18:37;;;;;;;10.80;7.97;;;6.60;99.90;;;;;;4960567;28;20046;-66
2022/03/20 03:21:03;;;;;;;10.75;6.43;;;6.70;99.90;;;;;;4970038;28;20078;-66
2022/03/20 03:23:30;;;;;;;11.02;7.45;;;6.70;99.90;;;;;;4965886;28;20051;-66
2022/03/20 03:25:56;;;;;;;11.23;7.80;;;6.70;99.90;;;;;;4948303;28;20150;-66
2022/03/20 03:28:28;;;;;;;10.63;7.28;;;6.70;99.90;;;;;;4977579;28;20061;-66
2022/03/20 03:30:54;;;;;;;13.73;8.63;;;6.50;99.90;;;;;;4980147;28;20082;-66
2022/03/20 03:33:21;;;;;;;11.43;7.38;;;6.60;99.90;;;;;;4971513;28;20502;-66
2022/03/20 03:35:53;;;;;;;11.65;7.50;;;6.70;99.90;;;;;;4980933;28;20476;-66
2022/03/20 03:38:21;;;;;;;12.10;8.25;;;6.60;99.90;;;;;;4967948;28;20035;-66
2022/03/20 03:40:48;;;;;;;17.60;8.63;;;6.50;99.90;;;;;;4977922;28;20398;-66
2022/03/20 03:43:15;;;;;;;15.05;8.35;;;6.40;99.90;;;;;;4968926;28;20158;-66
2022/03/20 03:45:41;;;;;;;14.02;8.50;;;6.30;99.90;;;;;;4970172;28;20046;-66
2022/03/20 03:48:11;;;;;;;17.33;8.98;;;6.20;99.90;;;;;;4988284;28;20049;-66
2022/03/20 03:50:39;;;;;;;11.20;6.85;;;6.20;99.90;;;;;;4952206;28;20079;-66
2022/03/20 03:53:05;;;;;;;13.40;7.93;;;6.30;99.90;;;;;;4950416;29;20383;-66
2022/03/20 03:55:32;;;;;;;12.48;7.88;;;6.20;99.90;;;;;;4947823;28;20499;-66
2022/03/20 03:57:58;;;;;;;15.68;9.13;;;6.20;99.90;;;;;;4964952;28;20102;-66
2022/03/20 04:00:26;;;;;;;22.10;6.45;;;6.10;99.90;;;;;;4966143;28;20046;-66
2022/03/20 04:02:51;;;;;;;15.15;9.32;;;6.20;99.90;;;;;;4965280;28;20102;-66
2022/03/20 04:05:17;;;;;;;16.27;9.30;;;6.20;99.90;;;;;;4954118;28;20043;-66
2022/03/20 04:07:45;;;;;;;14.32;9.52;;;6.10;99.90;;;;;;4987566;28;20067;-66
2022/03/20 04:10:10;;;;;;;13.25;7.78;;;6.20;99.90;;;;;;4968962;28;20051;-66
2022/03/20 04:12:37;;;;;;;12.13;8.00;;;6.30;99.90;;;;;;4960700;28;20066;-66
2022/03/20 04:15:04;;;;;;;14.90;9.20;;;6.20;99.90;;;;;;4962455;28;20047;-66
2022/03/20 04:17:30;;;;;;;18.65;9.95;;;6.20;99.90;;;;;;4952576;28;20051;-66
2022/03/20 04:19:59;;;;;;;18.13;9.75;;;6.20;99.90;;;;;;4952873;28;20051;-66
2022/03/20 04:22:26;;;;;;;16.52;10.30;;;6.00;99.90;;;;;;4967828;28;20053;-66
2022/03/20 04:24:53;;;;;;;16.77;8.98;;;5.90;99.90;;;;;;4972243;28;20049;-66
2022/03/20 04:27:19;;;;;;;16.15;8.50;;;6.10;99.90;;;;;;4952786;28;20078;-66
2022/03/20 04:29:44;;;;;;;10.73;7.35;;;6.20;99.90;;;;;;4969840;28;20475;-66
2022/03/20 04:32:13;;;;;;;15.75;8.30;;;6.10;99.90;;;;;;4965355;28;20047;-66
2022/03/20 04:34:43;;;;;;;18.05;9.93;;;6.20;99.90;;;;;;4958377;28;20055;-66
2022/03/20 04:37:10;;;;;;;13.10;8.80;;;6.20;99.90;;;;;;4952264;28;20126;-66
2022/03/20 04:39:37;;;;;;;18.15;11.82;;;6.00;99.90;;;;;;4951303;28;20640;-66
2022/03/20 04:42:04;;;;;;;23.58;11.48;;;6.10;99.90;;;;;;4957480;28;20222;-66
2022/03/20 04:44:30;;;;;;;22.20;11.20;;;6.00;99.90;;;;;;5009334;28;20073;-66
2022/03/20 04:46:56;;;;;;;19.88;10.52;;;5.90;99.90;;;;;;4970525;28;20609;-66
2022/03/20 04:58:29;;;;;;;19.30;11.38;;;5.90;99.90;;;;;;4952373;28;20598;-66
2022/03/20 05:00:22;;;;;;;16.63;10.70;;;6.00;99.90;;;;;;5002241;28;20617;-66
2022/03/20 05:02:48;;;;;;;14.52;9.93;;;5.90;99.90;;;;;;4952143;28;20554;-66
2022/03/20 05:05:18;;;;;;;17.13;9.98;;;6.00;99.90;;;;;;4951676;29;20051;-66
2022/03/20 05:07:43;;;;;;;16.75;11.48;;;5.70;99.90;;;;;;4962359;28;20058;-66
2022/03/20 05:15:39;;;;;;;17.55;10.75;;;5.80;99.90;;;;;;4965849;28;20047;-66
2022/03/20 05:18:07;;;;;;;12.85;9.85;;;5.70;99.90;;;;;;4951400;28;20419;-67
2022/03/20 05:20:32;;;;;;;13.98;10.10;;;5.90;99.90;;;;;;4951298;29;20058;-67
2022/03/20 05:22:59;;;;;;;16.35;10.82;;;6.00;99.90;;;;;;4954668;28;20043;-66
2022/03/20 05:25:26;;;;;;;18.20;11.20;;;6.00;99.90;;;;;;4970411;28;20923;-66
2022/03/20 05:27:51;;;;;;;17.15;10.82;;;6.00;99.90;;;;;;4958688;28;20071;-66
2022/03/20 05:30:17;;;;;;;17.20;11.55;;;5.90;99.90;;;;;;4970136;28;20051;-67
2022/03/20 05:32:42;;;;;;;20.42;11.52;;;6.00;99.90;;;;;;4970327;28;20038;-66
2022/03/20 05:35:09;;;;;;;14.70;9.35;;;5.80;99.90;;;;;;4953598;28;20054;-67
2022/03/20 05:37:36;;;;;;;18.05;11.68;;;5.80;99.90;;;;;;4950896;28;20055;-66
2022/03/20 05:40:03;;;;;;;17.98;11.18;;;5.90;99.90;;;;;;4965952;28;20042;-66
2022/03/20 05:42:29;;;;;;;15.90;11.43;;;5.90;99.90;;;;;;4980835;28;20094;-67
2022/03/20 05:44:55;;;;;;;19.80;12.57;;;5.70;99.90;;;;;;4964945;28;20090;-66
2022/03/20 05:47:21;;;;;;;16.13;11.68;;;5.60;99.90;;;;;;4950433;28;20167;-66
2022/03/20 05:49:46;;;;;;;15.85;10.73;;;5.90;99.90;;;;;;4952498;28;20039;-66
2022/03/20 05:52:13;;;;;;;17.67;10.95;;;5.80;99.90;;;;;;4963501;28;20042;-66
2022/03/20 05:54:39;;;;;;;19.02;11.85;;;5.90;99.90;;;;;;4970164;28;20043;-66
2022/03/20 05:59:53;;;;;;;16.30;11.15;;;5.60;99.90;;;;;;4962171;28;20267;-67
2022/03/20 06:02:19;;;;;;;16.80;12.52;;;5.70;99.90;;;;;;4951166;28;20047;-67
2022/03/20 06:04:45;;;;;;;19.17;13.55;;;5.60;99.90;;;;;;4951824;29;20043;-66
2022/03/20 06:07:11;;;;;;;19.27;11.98;;;5.70;99.90;;;;;;4954584;28;20506;-66
2022/03/20 06:09:37;;;;;;;26.02;12.85;;;5.80;99.90;;;;;;4965085;28;20043;-66
2022/03/20 06:12:03;;;;;;;14.25;11.23;;;5.80;99.90;;;;;;4970190;28;20392;-66
2022/03/20 06:14:29;;;;;;;16.88;11.80;;;5.80;99.90;;;;;;4968495;28;20070;-66
2022/03/20 06:16:56;;;;;;;19.38;13.35;;;5.70;99.90;;;;;;4969352;28;20097;-66
2022/03/20 06:19:21;;;;;;;16.95;11.10;;;5.70;99.90;;;;;;4968349;28;20055;-66
2022/03/20 06:21:47;;;;;;;22.08;11.88;;;5.80;99.90;;;;;;4959806;28;20125;-66
2022/03/20 06:24:13;;;;;;;16.63;12.07;;;5.90;99.90;;;;;;4954973;28;20496;-66
2022/03/20 06:26:38;;;;;;;17.83;12.88;;;5.90;99.90;;;;;;4950468;28;20051;-66
2022/03/20 06:29:05;;;;;;;25.13;13.13;;;5.90;99.90;;;;;;4979636;28;20035;-66
2022/03/20 06:31:31;;;;;;;19.02;12.75;;;5.70;99.90;;;;;;4958791;28;20059;-66
2022/03/20 06:33:57;;;;;;;20.67;14.27;;;5.80;99.90;;;;;;4950849;28;20063;-66
2022/03/20 06:36:23;;;;;;;19.73;13.20;;;5.70;99.90;;;;;;4952564;28;20065;-66
2022/03/20 06:38:49;;;;;;;19.05;12.95;;;5.70;99.90;;;;;;4965152;28;20035;-67
2022/03/20 06:41:15;;;;;;;22.25;12.82;;;5.90;99.90;;;;;;4961016;28;20138;-66
2022/03/20 06:43:40;;;;;;;28.02;15.07;;;5.80;99.90;;;;;;4958337;28;20124;-67
2022/03/20 06:46:07;;;;;;;22.83;14.00;;;5.80;99.90;;;;;;4970281;28;20969;-66
2022/03/20 06:48:34;;;;;;;16.85;13.35;;;5.90;99.90;;;;;;4968797;28;20078;-66
2022/03/20 06:51:00;;;;;;;20.42;14.18;;;5.90;99.90;;;;;;4982388;28;20066;-66
2022/03/20 06:53:26;;;;;;;21.63;13.68;;;5.70;99.90;;;;;;4962133;28;20055;-66
2022/03/20 06:55:52;;;;;;;19.40;12.95;;;5.80;99.90;;;;;;4969577;28;20043;-66
2022/03/20 06:58:20;;;;;;;21.90;13.38;;;5.80;99.90;;;;;;4961158;28;20030;-66
2022/03/20 07:00:46;;;;;;;23.40;14.82;;;5.80;99.90;;;;;;4957458;28;20093;-67
2022/03/20 07:03:12;;;;;;;19.52;13.52;;;6.00;99.90;;;;;;4969603;28;20532;-66
2022/03/20 07:05:38;;;;;;;18.40;12.85;;;5.90;99.90;;;;;;4953099;28;20098;-66
2022/03/20 07:08:05;;;;;;;19.30;13.35;;;6.00;99.90;;;;;;4950119;28;20051;-66
2022/03/20 07:10:31;;;;;;;18.38;12.63;;;5.90;99.90;;;;;;4954668;28;20138;-66
2022/03/20 07:15:44;;;;;;;24.40;14.73;;;6.20;99.90;;;;;;4978172;28;20062;-66
2022/03/20 07:18:11;;;;;;;22.88;14.00;;;6.30;99.90;;;;;;4950208;28;20463;-66
2022/03/20 07:20:37;;;;;;;23.77;13.32;;;6.40;99.90;;;;;;4956018;28;20049;-66
2022/03/20 07:23:03;;;;;;;20.38;12.68;;;6.60;99.90;;;;;;4974057;28;20128;-66
2022/03/20 07:30:57;;;;;;;20.48;14.27;;;6.60;99.90;;;;;;4963466;28;20054;-66
2022/03/20 07:33:25;;;;;;;16.92;13.32;;;6.40;99.90;;;;;;4954944;28;20054;-66
2022/03/20 07:35:51;;;;;;;20.73;14.77;;;6.50;99.90;;;;;;4953907;28;20094;-66
2022/03/20 07:38:17;;;;;;;25.10;15.00;;;6.30;99.90;;;;;;4967650;28;20078;-67
2022/03/20 07:40:42;;;;;;;21.92;14.13;;;6.60;99.90;;;;;;4987472;28;20049;-67
2022/03/20 07:43:08;;;;;;;20.63;13.23;;;6.50;99.90;;;;;;4973376;28;20066;-66
2022/03/20 07:45:34;;;;;;;17.25;12.38;;;6.50;99.90;;;;;;4956086;28;20051;-66
2022/03/20 07:48:00;;;;;;;22.92;15.35;;;6.70;99.90;;;;;;4970598;28;20051;-66
2022/03/20 07:50:26;;;;;;;23.25;13.40;;;6.60;99.90;;;;;;4985594;28;20089;-66
2022/03/20 07:52:51;;;;;;;25.25;14.65;;;6.90;99.90;;;;;;4991596;28;20397;-67
2022/03/20 07:55:17;;;;;;;19.88;14.48;;;6.80;99.90;;;;;;4958254;28;20553;-67
2022/03/20 07:57:44;;;;;;;21.45;13.88;;;6.80;99.90;;;;;;4967197;28;20038;-67
2022/03/20 08:00:11;;;;;;;21.83;14.55;;;6.90;99.90;;;;;;4966928;28;20494;-67
2022/03/20 08:02:37;;;;;;;21.77;15.23;;;6.90;99.90;;;;;;4957720;28;20046;-66
2022/03/20 08:05:03;;;;;;;19.95;14.27;;;6.90;99.90;;;;;;4969849;28;20667;-66
2022/03/20 08:07:38;;;;;;;26.80;15.60;;;7.10;99.90;;;;;;4989094;28;20507;-66
2022/03/20 08:10:12;;;;;;;21.05;14.57;;;7.50;99.90;;;;;;4982338;28;20097;-66
2022/03/20 08:12:38;;;;;;;18.80;13.25;;;7.90;99.90;;;;;;4958062;28;20043;-66
2022/03/20 08:15:05;;;;;;;20.65;14.20;;;8.10;99.90;;;;;;4988157;28;20048;-66
2022/03/20 08:17:31;;;;;;;22.40;15.52;;;8.60;99.90;;;;;;4974946;28;20047;-66
2022/03/20 08:19:57;;;;;;;21.27;13.52;;;9.00;99.90;;;;;;4960989;28;20092;-67
2022/03/20 08:22:25;;;;;;;21.10;14.80;;;9.50;99.90;;;;;;4990357;28;20379;-67
2022/03/20 08:24:51;;;;;;;22.05;14.55;;;9.80;99.90;;;;;;4970251;28;20051;-67
2022/03/20 08:27:19;;;;;;;20.92;14.48;;;10.00;99.90;;;;;;4967665;28;20123;-67
2022/03/20 08:29:44;;;;;;;22.38;15.60;;;10.20;99.80;;;;;;4967059;28;20054;-66
2022/03/20 08:32:10;;;;;;;22.90;15.27;;;10.40;98.50;;;;;;4970035;28;20058;-67
2022/03/20 08:34:36;;;;;;;19.77;14.65;;;10.30;98.60;;;;;;4970196;28;20054;-67
2022/03/20 08:37:01;;;;;;;21.83;14.68;;;10.60;97.80;;;;;;4968812;28;20137;-67
2022/03/20 08:39:27;;;;;;;21.30;14.27;;;10.70;98.40;;;;;;4962038;28;20494;-67
2022/03/20 08:41:53;;;;;;;22.35;14.23;;;11.00;97.40;;;;;;4965879;28;20047;-67
2022/03/20 08:44:18;;;;;;;26.80;15.75;;;11.00;97.10;;;;;;4962119;28;20486;-67
2022/03/20 08:46:44;;;;;;;24.20;15.10;;;11.00;96.70;;;;;;4959424;28;20046;-67
2022/03/20 08:49:10;;;;;;;24.10;14.73;;;10.90;96.10;;;;;;4951890;28;20043;-67
2022/03/20 08:51:40;;;;;;;20.40;15.57;;;11.20;96.30;;;;;;4984280;28;20053;-67
2022/03/20 08:54:06;;;;;;;20.15;15.63;;;11.30;96.10;;;;;;4991227;28;20054;-67
2022/03/20 08:56:33;;;;;;;20.20;15.32;;;11.60;95.70;;;;;;4964828;28;20054;-67
2022/03/20 08:58:58;;;;;;;19.58;15.60;;;11.50;95.20;;;;;;4959379;28;20051;-67
2022/03/20 09:01:24;;;;;;;22.27;15.82;;;11.60;95.00;;;;;;4965973;28;20117;-67
2022/03/20 09:03:50;;;;;;;25.88;15.65;;;11.70;93.80;;;;;;4979069;28;20112;-67
2022/03/20 09:06:20;;;;;;;23.38;15.32;;;11.80;94.40;;;;;;4979182;28;20038;-67
2022/03/20 09:08:46;;;;;;;20.98;16.38;;;11.70;93.70;;;;;;4952812;28;20094;-67
2022/03/20 09:11:12;;;;;;;29.13;16.33;;;11.40;92.90;;;;;;4951695;28;20058;-66
2022/03/20 09:13:38;;;;;;;23.85;16.08;;;11.70;93.90;;;;;;4965002;28;20055;-67
2022/03/20 09:19:00;;;;;;;27.25;17.52;;;11.00;93.50;;;;;;4990018;28;20086;-68
2022/03/20 09:21:26;;;;;;;28.00;17.00;;;10.80;94.40;;;;;;4977479;28;20050;-68
2022/03/20 09:23:52;;;;;;;27.38;17.45;;;10.10;95.10;;;;;;4958363;28;20047;-68
2022/03/20 09:26:18;;;;;;;25.08;16.95;;;10.00;95.30;;;;;;4959077;28;20039;-67
2022/03/20 09:28:44;;;;;;;24.92;17.08;;;9.90;96.60;;;;;;4963644;28;20051;-67
2022/03/20 09:31:10;;;;;;;26.08;17.27;;;9.80;96.00;;;;;;4987853;28;20093;-67
2022/03/20 09:33:35;;;;;;;22.40;15.15;;;10.20;95.70;;;;;;4972761;28;20074;-67
2022/03/20 09:36:01;;;;;;;21.83;16.42;;;10.50;95.70;;;;;;4952353;28;20109;-67
2022/03/20 09:38:27;;;;;;;21.10;15.95;;;11.10;96.00;;;;;;4950647;28;20435;-68
2022/03/20 09:40:54;;;;;;;23.73;17.13;;;11.40;94.20;;;;;;4954770;28;20139;-68
2022/03/20 09:43:20;;;;;;;26.77;17.90;;;11.60;94.10;;;;;;4964455;28;20096;-68
2022/03/20 09:45:47;;;;;;;21.30;16.67;;;12.00;93.60;;;;;;4967288;28;20043;-67
2022/03/20 09:48:14;;;;;;;29.65;16.92;;;12.10;93.20;;;;;;4983494;28;20543;-67
2022/03/20 09:50:42;;;;;;;24.98;17.98;;;12.40;92.60;;;;;;4970944;28;20418;-67
2022/03/20 09:53:08;;;;;;;27.20;17.25;;;12.30;92.80;;;;;;4951677;28;20059;-67
2022/03/20 09:55:34;;;;;;;26.75;16.38;;;12.70;92.90;;;;;;4953665;28;20200;-68
2022/03/20 09:58:00;;;;;;;22.67;15.25;;;12.60;91.40;;;;;;4971347;28;20397;-67
2022/03/20 10:00:26;;;;;;;28.27;16.60;;;12.70;92.30;;;;;;4984987;28;20101;-67
2022/03/20 10:02:51;;;;;;;26.00;18.65;;;13.10;91.80;;;;;;4971808;28;20125;-67
2022/03/20 10:05:22;;;;;;;26.23;16.60;;;12.90;91.70;;;;;;4967863;28;20054;-68
2022/03/20 10:07:48;;;;;;;23.95;16.15;;;13.00;91.10;;;;;;4952485;28;20174;-67
2022/03/20 10:10:28;;;;;;;27.92;17.02;;;12.90;90.70;;;;;;4966598;28;20512;-65
2022/03/20 10:12:57;;;;;;;20.80;15.82;;;12.60;90.20;;;;;;4963194;28;20055;-66
2022/03/20 10:15:37;;;;;;;19.88;16.10;;;12.70;90.70;;;;;;4960242;28;20058;-65
2022/03/20 10:18:18;;;;;;;24.48;17.13;;;12.80;91.10;;;;;;4991845;28;20051;-67
2022/03/20 10:20:48;;;;;;;23.35;16.88;;;12.80;91.20;;;;;;4983132;28;20042;-67
2022/03/20 10:23:33;;;;;;;24.08;18.35;;;12.90;90.60;;;;;;4950343;28;20134;-67
2022/03/20 10:26:16;;;;;;;27.83;17.63;;;12.90;89.70;;;;;;4960144;28;20082;-67
2022/03/20 10:28:44;;;;;;;21.38;16.40;;;13.00;90.40;;;;;;4969748;28;20057;-67
2022/03/20 10:31:18;;;;;;;26.00;15.35;;;12.70;91.10;;;;;;4963304;28;20896;-67
2022/03/20 10:33:58;;;;;;;23.20;17.33;;;13.00;91.40;;;;;;4950658;28;20133;-67
2022/03/20 10:36:23;;;;;;;26.27;16.67;;;13.00;91.80;;;;;;4955192;28;20604;-66
2022/03/20 10:38:50;;;;;;;27.92;18.08;;;13.00;91.30;;;;;;4972522;28;20132;-68
2022/03/20 10:41:18;;;;;;;23.38;17.95;;;12.50;90.10;;;;;;4988387;28;20081;-67
2022/03/20 10:43:45;;;;;;;25.55;17.27;;;12.80;90.10;;;;;;4966612;28;20151;-67
2022/03/20 10:46:17;;;;;;;26.02;17.55;;;12.70;90.20;;;;;;4958141;28;20051;-66
2022/03/20 10:48:44;;;;;;;26.20;16.88;;;13.00;90.60;;;;;;4973475;28;20038;-67
2022/03/20 10:51:10;;;;;;;25.95;16.63;;;13.00;90.30;;;;;;4968792;28;20398;-67
2022/03/20 10:53:50;;;;;;;22.67;17.52;;;13.00;89.40;;;;;;4969234;28;20049;-67
2022/03/20 10:56:16;;;;;;;25.00;18.90;;;13.10;89.30;;;;;;4968782;28;20058;-67
2022/03/20 10:58:42;;;;;;;26.05;19.42;;;12.60;87.40;;;;;;4965769;28;20051;-67
2022/03/20 11:01:08;;;;;;;24.80;17.50;;;12.90;88.70;;;;;;4950530;28;20094;-67
2022/03/20 11:03:37;;;;;;;22.58;17.50;;;13.20;87.50;;;;;;4948686;28;20043;-67
2022/03/20 11:06:11;;;;;;;29.05;18.73;;;13.40;87.60;;;;;;4973464;28;20462;-67
2022/03/20 11:08:37;;;;;;;25.00;16.92;;;13.30;87.60;;;;;;4966557;28;20586;-67
2022/03/20 11:11:05;;;;;;;26.17;18.48;;;13.70;90.30;;;;;;4975395;28;20042;-67
2022/03/20 11:13:33;;;;;;;23.02;16.40;;;13.80;89.80;;;;;;4969107;28;20035;-67
2022/03/20 11:15:59;;;;;;;28.73;18.05;;;13.90;88.40;;;;;;4973912;28;20039;-67
2022/03/20 11:18:27;;;;;;;26.00;18.95;;;13.80;88.60;;;;;;4972648;28;20078;-67
2022/03/20 11:20:53;;;;;;;23.52;17.92;;;14.00;86.50;;;;;;4972900;28;20047;-67
2022/03/20 11:23:22;;;;;;;21.52;17.52;;;14.00;87.70;;;;;;4971923;28;20085;-67
2022/03/20 11:25:48;;;;;;;23.02;17.95;;;14.10;86.90;;;;;;4975000;28;20047;-66
2022/03/20 11:28:14;;;;;;;28.38;20.40;;;14.10;87.60;;;;;;4978743;28;20553;-65
2022/03/20 11:30:44;;;;;;;25.48;17.67;;;14.30;83.50;;;;;;4965586;28;20080;-65
2022/03/20 11:33:10;;;;;;;28.50;18.98;;;14.10;84.50;;;;;;4967584;28;20046;-64
2022/03/20 11:35:37;;;;;;;24.60;18.48;;;14.30;85.30;;;;;;4955691;28;20110;-64
2022/03/20 11:38:19;;;;;;;30.05;19.50;;;14.40;84.70;;;;;;4961311;28;20047;-64
2022/03/20 11:41:03;;;;;;;27.80;21.45;;;14.40;84.20;;;;;;4959416;28;20055;-66
2022/03/20 11:43:29;;;;;;;;;;;14.20;82.70;;;;;;4960602;28;20514;-65
2022/03/20 11:46:13;;;;;;;31.58;20.90;;;14.50;83.50;;;;;;4953956;28;19922;-65
2022/03/20 11:48:39;;;;;;;34.53;19.63;;;14.60;82.40;;;;;;4954812;28;20130;-65
2022/03/20 11:51:04;;;;;;;32.67;19.80;;;14.70;84.80;;;;;;4992382;28;20093;-65
2022/03/20 11:53:31;;;;;;;27.17;18.83;;;15.00;82.70;;;;;;4955342;28;20138;-65
2022/03/20 11:55:57;;;;;;;21.17;17.42;;;14.80;81.60;;;;;;4971914;28;20144;-65
2022/03/20 11:58:26;;;;;;;26.38;18.70;;;15.00;83.70;;;;;;4966292;28;20047;-65
2022/03/20 12:01:12;;;;;;;24.75;18.98;;;14.80;82.40;;;;;;4952500;28;20051;-65
2022/03/20 12:04:00;;;;;;;24.33;19.38;;;15.10;82.40;;;;;;4970872;28;20125;-65
2022/03/20 12:06:43;;;;;;;24.02;18.60;;;15.00;83.30;;;;;;4970251;28;20050;-65
2022/03/20 12:09:32;;;;;;;30.50;20.33;;;15.30;79.00;;;;;;4970620;28;20582;-65
2022/03/20 12:12:20;;;;;;;33.67;20.85;;;14.90;80.40;;;;;;4991686;28;20070;-65
2022/03/20 12:14:53;;;;;;;24.00;19.17;;;14.90;80.20;;;;;;4964408;28;20419;-66
2022/03/20 12:17:20;;;;;;;23.35;19.30;;;14.90;81.60;;;;;;4974243;28;20089;-65
2022/03/20 12:19:53;;;;;;;31.33;20.60;;;15.30;82.80;;;;;;4961618;28;20054;-65
2022/03/20 12:22:19;;;;;;;27.83;20.38;;;15.50;79.30;;;;;;4952660;28;20114;-66
2022/03/20 12:24:55;;;;;;;31.40;19.45;;;15.50;80.30;;;;;;4971060;28;20718;-65
2022/03/20 12:27:22;;;;;;;28.85;20.80;;;15.50;81.30;;;;;;4971149;28;20093;-65
2022/03/20 12:30:03;;;;;;;27.42;19.27;;;15.30;78.40;;;;;;4963461;28;20556;-65
2022/03/20 12:32:48;;;;;;;29.90;21.15;;;15.20;80.70;;;;;;4953164;28;20043;-65
2022/03/20 12:35:16;;;;;;;25.48;19.45;;;14.90;79.20;;;;;;4951800;28;20083;-65
2022/03/20 12:37:44;;;;;;;30.60;20.17;;;15.10;79.60;;;;;;4968979;28;20047;-65
2022/03/20 12:40:10;;;;;;;34.05;21.50;;;15.10;80.50;;;;;;4965964;28;20047;-65
2022/03/20 12:42:54;;;;;;;29.30;19.60;;;14.90;78.60;;;;;;4967860;28;20047;-65
2022/03/20 12:45:20;;;;;;;25.83;19.13;;;14.90;79.00;;;;;;4986017;28;20134;-63
2022/03/20 12:48:07;;;;;;;24.73;19.10;;;15.10;80.60;;;;;;4970385;28;20185;-64
2022/03/20 12:50:35;;;;;;;23.75;18.52;;;15.10;82.10;;;;;;4958986;28;20070;-65
2022/03/20 12:53:16;;;;;;;28.05;20.05;;;15.00;79.80;;;;;;4966129;28;20046;-64
2022/03/20 12:56:04;;;;;;;24.15;17.73;;;14.90;79.80;;;;;;4961088;28;20042;-66
2022/03/20 12:58:30;;;;;;;27.08;19.05;;;15.20;79.50;;;;;;4957629;28;20487;-67
2022/03/20 13:00:57;;;;;;;26.90;19.83;;;15.20;78.80;;;;;;4953462;28;20043;-67
2022/03/20 13:03:25;;;;;;;28.08;21.98;;;15.40;80.40;;;;;;4950549;28;20035;-66
2022/03/20 13:05:58;;;;;;;25.13;18.95;;;15.40;78.10;;;;;;4962342;28;20773;-67
2022/03/20 13:08:36;;;;;;;28.73;21.42;;;15.70;79.20;;;;;;4959278;28;20082;-67
2022/03/20 13:11:48;;;;;;;28.92;20.33;;;15.70;78.60;;;;;;4970395;28;20054;-66
2022/03/20 13:14:05;;;;;;;34.78;22.23;;;15.90;77.60;;;;;;4971392;28;20062;-67